首页
METAR-TAF:

METAR-TAF

机场 :

Rock Springs - Sweetwater County Airport

Rock Springs, 怀俄明州, 美国

纬度: 41-35-39N, 经度: 109-03-55W, 海拔: 2060米

当前天气观测

该预报发布于12分钟前的20:29 UTC
风速32节,风向西南,有时为44节阵风
温度 7°C
湿度 93%
气压 1012 hPa
能見度: 3.2公里
阴天层高于3700英尺
雨, 轻雾

METAR: KRKS 062029Z AUTO 22032G44KT 2SM RA BR OVC037 07/06 A2989 RMK AO2 PK WND 21059/2008 WSHFT 1952 LTG DSNT ALQDS P0018 T00670056

时间: 14:41 (20:41 UTC)

预报

该预报发布于3小时和2分钟前的17:39 UTC
预报有效从06日的 18点(UTC)到 07日的 18点(UTC)
风速15节,风向南转西南,有时为25节阵风
能見度: 9.7公里
散云层高于3000英尺
多云层高于5000英尺, 积雨云.
小阵雨, 附近有雷暴
短暂存在
从 06日的 19点(UTC)到 06日的 22点(UTC)
风速30节,风向多变,有时为45节阵风
能見度: 8.0公里
散云层高于1500英尺
多云层高于3000英尺, 积雨云.
雷暴, 小雨
从 06日的 2300点(UTC)
风速22节,风向南转西南,有时为32节阵风
能見度: 10公里
散云层高于4000英尺
多云层高于6000英尺
附近有阵雨
从 07日的 0300点(UTC)
风速25节,风向西南,有时为35节阵风
能見度: 10公里
散云层高于5000英尺
多云层高于8000英尺
从 07日的 0800点(UTC)
风速10节,风向西南
能見度: 10公里
散云层高于6000英尺
多云层高于10000英尺
从 07日的 1700点(UTC)
风速18节,风向西南,有时为26节阵风
能見度: 10公里
散云层高于5000英尺
多云层高于9000英尺

TAF: KRKS 061739Z 0618/0718 20015G25KT 6SM -SHRA VCTS SCT030 BKN050CB TEMPO 0619/0622 VRB30G45KT 5SM -TSRA SCT015 BKN030CB FM062300 21022G32KT P6SM VCSH SCT040 BKN060 FM070300 23025G35KT P6SM SCT050 BKN080 FM070800 23010KT P6SM SCT060 BKN100 FM071700 23018G26KT P6SM SCT050 BKN090

超过4000个机场的气象观测和天气预报(METAR&TAF报告)。

可查询的气象台以黄色和红色小点在地图上表示。

将鼠标移到小点上方,可查看气象台名称。

然后点击查看天气观测和预报。

如需切换地图:点击带黑十字的绿色按钮放大地图;点击带横线的绿色按钮缩小地图;或者点击绿色箭头查看邻近地区的地图。


METAR-TAF: